Airfield :
LOGIN :

Register | Disclaimer

   EN    FR    IT 

 










Legend :    VFR   Marginal VFR   IFR   Intensive IFR   Very Intensive IFR
Visi :
Ceiling :
>= 8 km
>= 3000ft
5 to 8 km
1000 to 3000 ft
1500m to 5 km
500 to 1000 ft
800 to 1500m
200 to 500 ft
< 800m
< 200 ft
Symbols :   Thunderstorms  Fog  Heavy snow  Heavy precipitations  Wind > 20 kt
SIGMETs :     Misc.  Thunderstorms  Icing  Turbulence  Mountain Waves  Volcanic Ashes







- Airport Elevation : 392 ft
- IATA code : CDG
- Download approach charts


LFPG - Paris-Aeroport Charles De Gaulle

CURRENT METAR :
  • 261230Z 12007KT 050V160 CAVOK 16/06 Q1020 NOSIG

EXPIRED METARs :
  • 261200Z 10007KT 040V160 CAVOK 16/07 Q1020 NOSIG
  • 261130Z 12008KT 080V160 CAVOK 15/06 Q1020 NOSIG
  • 261100Z 11009KT CAVOK 14/06 Q1020 NOSIG
  • 261030Z 12010KT 080V140 CAVOK 14/05 Q1020 NOSIG
  • 261000Z 10009KT CAVOK 13/04 Q1020 NOSIG

TAF TAF LFPG
Valid from the 26 at 12:00 until the 27 at 18:00 UTC


261100Z 2612/2718 09010KT CAVOK TX19/2615Z TN06/2705Z
ATIS : +33 1 48 62 10 92
No reported NOTAMs for that airfield.



MET'MAP, your aeronautical weather chart ! - Copyright ORBIFLY December 2007 - Disclaimer

ORBIFLY MET'MAP TEAM :

Programming & Development : Alexandra Zaïnal
Concept & Development : Baudouin d'Aumeries
Co-Development & Prog : Marc-Olivier Méhu
Technical & hardware support : Manuel Goepfert

Contact : metmap@orbifly.com




SOURCES & CREDITS :

   NOAA